Shawnee, OK

7:58 AM CDT on July 30, 2016 (GMT -0500)
Shawnee Municipal | | Change Station

Elev 1073 ft 35.36 °N, 96.94 °W | Updated 23 minutes ago

Clear
Clear
74 °F
Feels Like 74 °F
N
0
Wind Variable Wind from North

Today
High -- | Low -- °F
--% Chance of Precip.
Yesterday
High -- | Low -- °F
Precip. -- in
Pressure 29.98 in
Visibility 10.0 miles
Clouds Clear
Dew Point 71 °F
Humidity 90%
Rainfall 0.00 in
Snow Depth Not available.
6:35 AM 8:32 PM
Waning Crescent, 13% visible
METAR KSNL 301235Z AUTO 00000KT 10SM CLR 23/22 A2998 RMK AO2 LTG DSNT NW T02320215
Pressure 29.98 in
Visibility 10.0 miles
Clouds Clear
Dew Point 71 °F
Humidity 90%
Rainfall 0.00 in
Snow Depth Not available.
6:35 AM 8:32 PM
Waning Crescent, 13% visible
METAR KSNL 301235Z AUTO 00000KT 10SM CLR 23/22 A2998 RMK AO2 LTG DSNT NW T02320215

10-Day Weather Forecast

Almanac

Astronomy

Jul. 30, 2016 Rise Set
Actual Time
Civil Twilight
Nautical Twilight
Astronomical Twilight
Moon
Length of Visible Light
Length of Day
Tomorrow will be .
, % of the Moon is Illuminated

Today's Extremes

State Highs State Lows

Community

WunderPhotos

Upload Photos

1,928,545 photos uploaded!

WunderBlog® & News

Nearby

Air Quality

  Air Quality AQ Index Pollutant
Not available.

Snow Depth

Station Depth Elevation

Earthquake Activity

City Distance Mag. Time & Date
Minimum magnitude displayed is 2.5.

Coastal Water Temperatures

Place Temperature

Stations

Nearby Weather Stations

Station Location Temp. Windchill Dew Point Humidity Wind Precip. Elev Updated Type
                   

Watches & Warnings

There are currently no watches in effect.